sensor_id;sensor_type;location;lat;lon;timestamp;pressure;altitude;pressure_sealevel;temperature;humidity
61900;BME280;47853;55.890;37.664;2022-09-09T00:00:40;100030.38;;;7.15;70.52
61900;BME280;47853;55.890;37.664;2022-09-09T00:03:19;100033.72;;;6.96;71.45
61900;BME280;47853;55.890;37.664;2022-09-09T00:06:01;100035.41;;;7.18;71.74
61900;BME280;47853;55.890;37.664;2022-09-09T00:09:00;100030.09;;;7.39;70.73
61900;BME280;47853;55.890;37.664;2022-09-09T00:14:03;100040.28;;;7.44;70.27
61900;BME280;47853;55.890;37.664;2022-09-09T00:16:36;100036.63;;;7.35;70.21
61900;BME280;47853;55.890;37.664;2022-09-09T00:19:16;100040.84;;;7.17;70.84
61900;BME280;47853;55.890;37.664;2022-09-09T00:24:27;100028.88;;;7.22;71.13
61900;BME280;47853;55.890;37.664;2022-09-09T00:30:12;100049.72;;;7.37;70.55
61900;BME280;47853;55.890;37.664;2022-09-09T00:32:40;100040.63;;;7.30;70.56
61900;BME280;47853;55.890;37.664;2022-09-09T00:35:38;100054.22;;;7.46;70.27
61900;BME280;47853;55.890;37.664;2022-09-09T00:38:15;100052.78;;;7.42;70.42
61900;BME280;47853;55.890;37.664;2022-09-09T00:40:55;100051.94;;;7.42;70.27
61900;BME280;47853;55.890;37.664;2022-09-09T00:43:27;100062.66;;;7.40;70.52
61900;BME280;47853;55.890;37.664;2022-09-09T00:46:32;100049.94;;;7.55;70.08
61900;BME280;47853;55.890;37.664;2022-09-09T00:49:15;100061.81;;;7.39;69.94
61900;BME280;47853;55.890;37.664;2022-09-09T00:51:59;100068.41;;;7.24;70.68
61900;BME280;47853;55.890;37.664;2022-09-09T00:54:32;100072.72;;;7.04;71.50
61900;BME280;47853;55.890;37.664;2022-09-09T01:02:35;100082.50;;;6.59;72.69
61900;BME280;47853;55.890;37.664;2022-09-09T01:05:27;100069.97;;;6.73;72.73
61900;BME280;47853;55.890;37.664;2022-09-09T01:07:57;100065.94;;;6.57;72.92
61900;BME280;47853;55.890;37.664;2022-09-09T01:10:32;100081.03;;;6.66;73.10
61900;BME280;47853;55.890;37.664;2022-09-09T01:13:04;100079.03;;;6.80;73.53
61900;BME280;47853;55.890;37.664;2022-09-09T01:15:31;100079.47;;;6.96;72.54
61900;BME280;47853;55.890;37.664;2022-09-09T01:18:15;100076.84;;;6.96;71.99
61900;BME280;47853;55.890;37.664;2022-09-09T01:20:55;100088.03;;;6.89;72.06
61900;BME280;47853;55.890;37.664;2022-09-09T01:24:16;100086.31;;;7.20;71.64
61900;BME280;47853;55.890;37.664;2022-09-09T01:26:45;100088.63;;;6.92;71.61
61900;BME280;47853;55.890;37.664;2022-09-09T01:29:13;100087.97;;;7.00;71.60
61900;BME280;47853;55.890;37.664;2022-09-09T01:31:42;100085.22;;;7.02;71.63
61900;BME280;47853;55.890;37.664;2022-09-09T01:34:17;100086.59;;;6.85;72.05
61900;BME280;47853;55.890;37.664;2022-09-09T01:39:22;100083.97;;;6.85;72.47
61900;BME280;47853;55.890;37.664;2022-09-09T01:41:48;100088.84;;;6.57;72.38
61900;BME280;47853;55.890;37.664;2022-09-09T01:44:13;100094.53;;;6.85;72.67
61900;BME280;47853;55.890;37.664;2022-09-09T01:46:39;100103.38;;;7.16;72.07
61900;BME280;47853;55.890;37.664;2022-09-09T01:49:06;100107.69;;;7.17;71.30
61900;BME280;47853;55.890;37.664;2022-09-09T01:51:34;100101.41;;;7.08;71.38
61900;BME280;47853;55.890;37.664;2022-09-09T01:54:00;100101.78;;;7.25;71.02
61900;BME280;47853;55.890;37.664;2022-09-09T01:56:40;100103.78;;;7.33;70.70
61900;BME280;47853;55.890;37.664;2022-09-09T01:59:35;100109.19;;;7.10;70.84
61900;BME280;47853;55.890;37.664;2022-09-09T02:02:16;100117.09;;;7.10;71.33
61900;BME280;47853;55.890;37.664;2022-09-09T02:04:48;100115.50;;;7.40;70.74
61900;BME280;47853;55.890;37.664;2022-09-09T02:10:24;100117.19;;;7.20;70.89
61900;BME280;47853;55.890;37.664;2022-09-09T02:12:57;100121.59;;;7.19;70.75
61900;BME280;47853;55.890;37.664;2022-09-09T02:17:58;100120.63;;;6.99;71.15
61900;BME280;47853;55.890;37.664;2022-09-09T02:20:25;100115.78;;;7.04;71.14
61900;BME280;47853;55.890;37.664;2022-09-09T02:22:53;100111.28;;;6.95;71.03
61900;BME280;47853;55.890;37.664;2022-09-09T02:25:22;100115.72;;;6.94;71.17
61900;BME280;47853;55.890;37.664;2022-09-09T02:27:50;100115.72;;;6.94;71.09
61900;BME280;47853;55.890;37.664;2022-09-09T02:30:16;100128.06;;;6.61;72.01
61900;BME280;47853;55.890;37.664;2022-09-09T02:32:43;100130.03;;;6.48;72.46
61900;BME280;47853;55.890;37.664;2022-09-09T02:35:16;100126.41;;;6.37;72.90
61900;BME280;47853;55.890;37.664;2022-09-09T02:37:44;100136.75;;;6.29;73.52
61900;BME280;47853;55.890;37.664;2022-09-09T02:40:11;100141.66;;;6.11;73.89
61900;BME280;47853;55.890;37.664;2022-09-09T02:42:44;100143.81;;;5.94;74.76
61900;BME280;47853;55.890;37.664;2022-09-09T02:45:12;100146.00;;;6.01;74.88
61900;BME280;47853;55.890;37.664;2022-09-09T02:50:35;100152.78;;;5.80;76.09
61900;BME280;47853;55.890;37.664;2022-09-09T02:55:39;100159.97;;;5.90;75.42
61900;BME280;47853;55.890;37.664;2022-09-09T02:58:09;100161.53;;;5.92;75.47
61900;BME280;47853;55.890;37.664;2022-09-09T03:00:36;100159.38;;;5.98;75.68
61900;BME280;47853;55.890;37.664;2022-09-09T03:03:03;100158.31;;;6.00;75.27
61900;BME280;47853;55.890;37.664;2022-09-09T03:05:29;100150.94;;;6.05;75.01
61900;BME280;47853;55.890;37.664;2022-09-09T03:07:54;100149.81;;;6.08;74.96
61900;BME280;47853;55.890;37.664;2022-09-09T03:10:20;100149.94;;;6.18;74.84
61900;BME280;47853;55.890;37.664;2022-09-09T03:12:45;100153.66;;;6.15;74.53
61900;BME280;47853;55.890;37.664;2022-09-09T03:15:10;100158.94;;;6.15;74.66
61900;BME280;47853;55.890;37.664;2022-09-09T03:17:36;100155.69;;;6.00;74.96
61900;BME280;47853;55.890;37.664;2022-09-09T03:20:05;100175.00;;;6.12;74.98
61900;BME280;47853;55.890;37.664;2022-09-09T03:22:30;100169.38;;;6.05;74.97
61900;BME280;47853;55.890;37.664;2022-09-09T03:24:56;100169.09;;;5.97;75.26
61900;BME280;47853;55.890;37.664;2022-09-09T03:27:21;100171.47;;;5.77;75.72
61900;BME280;47853;55.890;37.664;2022-09-09T03:29:46;100158.13;;;6.03;76.04
61900;BME280;47853;55.890;37.664;2022-09-09T03:32:12;100166.13;;;6.13;75.70
61900;BME280;47853;55.890;37.664;2022-09-09T03:34:38;100174.41;;;6.20;75.30
61900;BME280;47853;55.890;37.664;2022-09-09T03:37:03;100180.63;;;6.30;75.02
61900;BME280;47853;55.890;37.664;2022-09-09T03:39:28;100183.75;;;6.01;74.89
61900;BME280;47853;55.890;37.664;2022-09-09T03:41:54;100192.50;;;6.13;75.39
61900;BME280;47853;55.890;37.664;2022-09-09T03:44:19;100183.53;;;6.16;75.16
61900;BME280;47853;55.890;37.664;2022-09-09T03:46:44;100201.38;;;6.12;75.23
61900;BME280;47853;55.890;37.664;2022-09-09T03:49:10;100199.91;;;5.97;75.58
61900;BME280;47853;55.890;37.664;2022-09-09T03:51:35;100187.56;;;5.97;76.04
61900;BME280;47853;55.890;37.664;2022-09-09T03:54:00;100203.66;;;6.17;75.71
61900;BME280;47853;55.890;37.664;2022-09-09T03:56:26;100210.63;;;6.29;75.27
61900;BME280;47853;55.890;37.664;2022-09-09T03:58:51;100193.59;;;6.11;74.82
61900;BME280;47853;55.890;37.664;2022-09-09T04:01:16;100194.53;;;5.98;75.05
61900;BME280;47853;55.890;37.664;2022-09-09T04:03:42;100201.69;;;5.96;75.50
61900;BME280;47853;55.890;37.664;2022-09-09T04:06:09;100190.00;;;6.12;75.41
61900;BME280;47853;55.890;37.664;2022-09-09T04:08:34;100197.53;;;6.05;75.64
61900;BME280;47853;55.890;37.664;2022-09-09T04:11:00;100211.22;;;6.21;75.80
61900;BME280;47853;55.890;37.664;2022-09-09T04:13:26;100204.63;;;6.16;75.35
61900;BME280;47853;55.890;37.664;2022-09-09T04:15:53;100205.00;;;6.34;75.30
61900;BME280;47853;55.890;37.664;2022-09-09T04:18:19;100204.84;;;6.24;74.73
61900;BME280;47853;55.890;37.664;2022-09-09T04:20:48;100211.22;;;6.33;74.68
61900;BME280;47853;55.890;37.664;2022-09-09T04:23:14;100208.22;;;6.37;74.49
61900;BME280;47853;55.890;37.664;2022-09-09T04:25:48;100205.72;;;6.24;74.59
61900;BME280;47853;55.890;37.664;2022-09-09T04:28:14;100211.13;;;6.46;74.46
61900;BME280;47853;55.890;37.664;2022-09-09T04:30:40;100210.50;;;6.53;73.83
61900;BME280;47853;55.890;37.664;2022-09-09T04:33:07;100203.53;;;6.52;73.87
61900;BME280;47853;55.890;37.664;2022-09-09T04:35:32;100214.19;;;6.74;73.50
61900;BME280;47853;55.890;37.664;2022-09-09T04:37:58;100211.03;;;6.80;72.92
61900;BME280;47853;55.890;37.664;2022-09-09T04:40:24;100206.19;;;6.64;73.02
61900;BME280;47853;55.890;37.664;2022-09-09T04:42:49;100214.78;;;6.77;73.01
61900;BME280;47853;55.890;37.664;2022-09-09T04:45:14;100218.50;;;6.86;72.69
61900;BME280;47853;55.890;37.664;2022-09-09T04:47:40;100225.59;;;6.51;73.57
61900;BME280;47853;55.890;37.664;2022-09-09T04:50:06;100218.97;;;6.80;73.26
61900;BME280;47853;55.890;37.664;2022-09-09T04:52:34;100212.25;;;6.76;73.74
61900;BME280;47853;55.890;37.664;2022-09-09T04:54:59;100215.84;;;7.30;72.48
61900;BME280;47853;55.890;37.664;2022-09-09T04:57:24;100221.22;;;8.04;70.40
61900;BME280;47853;55.890;37.664;2022-09-09T04:59:50;100214.66;;;8.50;68.27
61900;BME280;47853;55.890;37.664;2022-09-09T05:02:15;100221.94;;;8.68;66.48
61900;BME280;47853;55.890;37.664;2022-09-09T05:04:40;100223.97;;;9.05;65.47
61900;BME280;47853;55.890;37.664;2022-09-09T05:07:06;100228.44;;;9.83;63.11
61900;BME280;47853;55.890;37.664;2022-09-09T05:09:31;100214.34;;;10.30;61.59
61900;BME280;47853;55.890;37.664;2022-09-09T05:11:56;100236.28;;;10.70;59.78
61900;BME280;47853;55.890;37.664;2022-09-09T05:14:22;100238.47;;;10.85;58.17
61900;BME280;47853;55.890;37.664;2022-09-09T05:16:47;100241.56;;;10.80;58.62
61900;BME280;47853;55.890;37.664;2022-09-09T05:19:12;100230.75;;;11.46;56.96
61900;BME280;47853;55.890;37.664;2022-09-09T05:21:38;100235.94;;;11.92;54.95
61900;BME280;47853;55.890;37.664;2022-09-09T05:24:03;100243.97;;;12.18;54.39
61900;BME280;47853;55.890;37.664;2022-09-09T05:26:29;100236.53;;;12.30;54.12
61900;BME280;47853;55.890;37.664;2022-09-09T05:28:54;100243.03;;;12.62;52.53
61900;BME280;47853;55.890;37.664;2022-09-09T05:31:20;100226.34;;;12.52;52.31
61900;BME280;47853;55.890;37.664;2022-09-09T05:33:47;100243.53;;;13.17;51.47
61900;BME280;47853;55.890;37.664;2022-09-09T05:36:15;100251.88;;;13.23;49.88
61900;BME280;47853;55.890;37.664;2022-09-09T05:38:41;100232.22;;;13.32;49.88
61900;BME280;47853;55.890;37.664;2022-09-09T05:41:08;100257.28;;;13.64;49.50
61900;BME280;47853;55.890;37.664;2022-09-09T05:46:50;100252.84;;;14.94;46.41
61900;BME280;47853;55.890;37.664;2022-09-09T05:49:15;100259.25;;;15.16;45.16
61900;BME280;47853;55.890;37.664;2022-09-09T05:51:40;100244.81;;;14.94;45.22
61900;BME280;47853;55.890;37.664;2022-09-09T05:54:06;100246.88;;;15.15;45.46
61900;BME280;47853;55.890;37.664;2022-09-09T05:56:31;100248.41;;;15.33;44.57
61900;BME280;47853;55.890;37.664;2022-09-09T05:58:59;100246.78;;;14.60;46.22
61900;BME280;47853;55.890;37.664;2022-09-09T06:01:30;100255.34;;;15.27;44.30
61900;BME280;47853;55.890;37.664;2022-09-09T06:03:56;100256.25;;;15.81;43.87
61900;BME280;47853;55.890;37.664;2022-09-09T06:06:24;100260.13;;;15.78;43.49
61900;BME280;47853;55.890;37.664;2022-09-09T06:08:52;100256.56;;;16.24;42.31
61900;BME280;47853;55.890;37.664;2022-09-09T06:11:20;100264.56;;;16.09;42.31
61900;BME280;47853;55.890;37.664;2022-09-09T06:13:46;100255.06;;;15.84;42.39
61900;BME280;47853;55.890;37.664;2022-09-09T06:16:16;100263.97;;;16.37;41.01
61900;BME280;47853;55.890;37.664;2022-09-09T06:18:42;100263.47;;;16.34;41.57
61900;BME280;47853;55.890;37.664;2022-09-09T06:23:42;100271.31;;;15.12;44.19
61900;BME280;47853;55.890;37.664;2022-09-09T06:26:11;100278.34;;;16.66;41.44
61900;BME280;47853;55.890;37.664;2022-09-09T06:28:37;100284.75;;;16.65;41.15
61900;BME280;47853;55.890;37.664;2022-09-09T06:31:05;100289.66;;;16.62;40.55
61900;BME280;47853;55.890;37.664;2022-09-09T06:33:33;100285.50;;;15.91;41.00
61900;BME280;47853;55.890;37.664;2022-09-09T06:35:59;100281.78;;;16.45;40.97
61900;BME280;47853;55.890;37.664;2022-09-09T06:38:24;100291.13;;;16.49;41.03
61900;BME280;47853;55.890;37.664;2022-09-09T06:40:58;100290.22;;;15.34;42.94
61900;BME280;47853;55.890;37.664;2022-09-09T06:43:25;100289.34;;;16.27;42.17
61900;BME280;47853;55.890;37.664;2022-09-09T06:48:26;100274.91;;;15.51;42.66
61900;BME280;47853;55.890;37.664;2022-09-09T06:51:10;100291.97;;;15.97;41.99
61900;BME280;47853;55.890;37.664;2022-09-09T06:53:36;100291.41;;;16.40;40.74
61900;BME280;47853;55.890;37.664;2022-09-09T06:56:17;100299.25;;;16.41;41.35
61900;BME280;47853;55.890;37.664;2022-09-09T06:58:43;100294.13;;;15.23;42.03
61900;BME280;47853;55.890;37.664;2022-09-09T07:01:09;100300.06;;;16.27;41.46
61900;BME280;47853;55.890;37.664;2022-09-09T07:03:35;100302.25;;;16.08;40.78
61900;BME280;47853;55.890;37.664;2022-09-09T07:06:00;100305.44;;;16.27;40.40
61900;BME280;47853;55.890;37.664;2022-09-09T07:08:26;100309.50;;;17.49;38.34
61900;BME280;47853;55.890;37.664;2022-09-09T07:10:52;100298.25;;;18.04;36.06
61900;BME280;47853;55.890;37.664;2022-09-09T07:13:17;100301.22;;;15.94;39.85
61900;BME280;47853;55.890;37.664;2022-09-09T07:15:42;100315.25;;;15.73;40.82
61900;BME280;47853;55.890;37.664;2022-09-09T07:18:08;100315.63;;;15.38;41.68
61900;BME280;47853;55.890;37.664;2022-09-09T07:20:33;100308.88;;;15.74;41.29
61900;BME280;47853;55.890;37.664;2022-09-09T07:22:58;100299.84;;;15.51;41.58
61900;BME280;47853;55.890;37.664;2022-09-09T07:25:24;100313.75;;;16.77;39.17
61900;BME280;47853;55.890;37.664;2022-09-09T07:27:49;100315.97;;;17.98;36.84
61900;BME280;47853;55.890;37.664;2022-09-09T07:30:14;100308.31;;;16.85;38.35
61900;BME280;47853;55.890;37.664;2022-09-09T07:32:40;100316.69;;;14.97;41.29
61900;BME280;47853;55.890;37.664;2022-09-09T07:35:05;100316.25;;;16.33;39.51
61900;BME280;47853;55.890;37.664;2022-09-09T07:37:31;100327.59;;;16.20;39.27
61900;BME280;47853;55.890;37.664;2022-09-09T07:39:56;100328.28;;;15.99;39.56
61900;BME280;47853;55.890;37.664;2022-09-09T07:42:22;100331.06;;;13.30;44.77
61900;BME280;47853;55.890;37.664;2022-09-09T07:44:47;100344.13;;;12.99;46.12
61900;BME280;47853;55.890;37.664;2022-09-09T07:47:12;100333.41;;;12.82;45.55
61900;BME280;47853;55.890;37.664;2022-09-09T07:49:38;100333.41;;;13.25;44.82
61900;BME280;47853;55.890;37.664;2022-09-09T07:52:03;100337.44;;;13.38;43.54
61900;BME280;47853;55.890;37.664;2022-09-09T07:54:28;100333.34;;;13.09;43.79
61900;BME280;47853;55.890;37.664;2022-09-09T07:56:54;100328.50;;;12.69;44.88
61900;BME280;47853;55.890;37.664;2022-09-09T07:59:19;100347.94;;;12.35;45.94
61900;BME280;47853;55.890;37.664;2022-09-09T08:01:47;100341.81;;;12.16;46.37
61900;BME280;47853;55.890;37.664;2022-09-09T08:04:16;100346.91;;;11.92;47.14
61900;BME280;47853;55.890;37.664;2022-09-09T08:07:02;100344.63;;;12.15;47.61
61900;BME280;47853;55.890;37.664;2022-09-09T08:09:27;100348.56;;;12.82;47.61
61900;BME280;47853;55.890;37.664;2022-09-09T08:11:53;100340.34;;;14.52;42.85
61900;BME280;47853;55.890;37.664;2022-09-09T08:14:18;100346.94;;;13.40;43.01
61900;BME280;47853;55.890;37.664;2022-09-09T08:16:46;100348.31;;;12.67;45.36
61900;BME280;47853;55.890;37.664;2022-09-09T08:19:12;100346.53;;;12.75;46.06
61900;BME280;47853;55.890;37.664;2022-09-09T08:21:39;100353.41;;;13.29;44.94
61900;BME280;47853;55.890;37.664;2022-09-09T08:24:06;100346.75;;;13.33;44.25
61900;BME280;47853;55.890;37.664;2022-09-09T08:26:34;100346.91;;;12.89;44.86
61900;BME280;47853;55.890;37.664;2022-09-09T08:29:00;100346.84;;;14.58;41.65
61900;BME280;47853;55.890;37.664;2022-09-09T08:31:31;100344.72;;;15.96;38.96
61900;BME280;47853;55.890;37.664;2022-09-09T08:33:57;100341.22;;;18.26;34.84
61900;BME280;47853;55.890;37.664;2022-09-09T08:36:24;100343.34;;;19.01;32.64
61900;BME280;47853;55.890;37.664;2022-09-09T08:38:52;100329.44;;;19.46;31.38
61900;BME280;47853;55.890;37.664;2022-09-09T08:43:46;100344.94;;;16.09;36.38
61900;BME280;47853;55.890;37.664;2022-09-09T08:46:21;100353.66;;;14.85;39.54
61900;BME280;47853;55.890;37.664;2022-09-09T08:49:17;100363.75;;;14.42;40.93
61900;BME280;47853;55.890;37.664;2022-09-09T08:51:48;100354.50;;;15.57;40.25
61900;BME280;47853;55.890;37.664;2022-09-09T08:54:14;100359.59;;;18.22;35.75
61900;BME280;47853;55.890;37.664;2022-09-09T08:56:39;100352.53;;;18.43;33.97
61900;BME280;47853;55.890;37.664;2022-09-09T08:59:05;100355.66;;;16.48;37.38
61900;BME280;47853;55.890;37.664;2022-09-09T09:01:44;100360.69;;;15.58;38.28
61900;BME280;47853;55.890;37.664;2022-09-09T09:04:40;100367.72;;;14.62;40.14
61900;BME280;47853;55.890;37.664;2022-09-09T09:10:03;100356.22;;;13.87;41.67
61900;BME280;47853;55.890;37.664;2022-09-09T09:12:41;100364.59;;;14.17;41.42
61900;BME280;47853;55.890;37.664;2022-09-09T09:15:16;100358.25;;;13.94;41.21
61900;BME280;47853;55.890;37.664;2022-09-09T09:17:43;100353.56;;;14.37;40.49
61900;BME280;47853;55.890;37.664;2022-09-09T09:20:13;100366.19;;;17.39;35.99
61900;BME280;47853;55.890;37.664;2022-09-09T09:22:48;100347.41;;;18.26;33.87
61900;BME280;47853;55.890;37.664;2022-09-09T09:25:27;100353.13;;;15.61;37.87
61900;BME280;47853;55.890;37.664;2022-09-09T09:28:23;100361.50;;;14.78;40.58
61900;BME280;47853;55.890;37.664;2022-09-09T09:30:49;100364.97;;;14.96;41.14
61900;BME280;47853;55.890;37.664;2022-09-09T09:33:47;100367.88;;;14.86;41.17
61900;BME280;47853;55.890;37.664;2022-09-09T09:36:13;100355.56;;;14.27;41.59
61900;BME280;47853;55.890;37.664;2022-09-09T09:38:39;100357.88;;;14.55;41.86
61900;BME280;47853;55.890;37.664;2022-09-09T09:41:04;100354.59;;;15.01;41.23
61900;BME280;47853;55.890;37.664;2022-09-09T09:43:32;100368.88;;;14.85;40.85
61900;BME280;47853;55.890;37.664;2022-09-09T09:45:58;100362.53;;;14.77;40.82
61900;BME280;47853;55.890;37.664;2022-09-09T09:48:25;100364.72;;;14.65;40.94
61900;BME280;47853;55.890;37.664;2022-09-09T09:50:54;100353.56;;;14.45;41.50
61900;BME280;47853;55.890;37.664;2022-09-09T09:53:29;100358.59;;;14.07;42.13
61900;BME280;47853;55.890;37.664;2022-09-09T09:56:00;100354.75;;;15.07;41.08
61900;BME280;47853;55.890;37.664;2022-09-09T09:58:30;100358.06;;;18.41;34.54
61900;BME280;47853;55.890;37.664;2022-09-09T10:00:56;100364.53;;;19.11;31.13
61900;BME280;47853;55.890;37.664;2022-09-09T10:03:31;100361.03;;;16.48;35.15
61900;BME280;47853;55.890;37.664;2022-09-09T10:05:57;100350.53;;;16.00;36.77
61900;BME280;47853;55.890;37.664;2022-09-09T10:08:26;100360.09;;;15.47;38.78
61900;BME280;47853;55.890;37.664;2022-09-09T10:22:19;100385.44;;;13.81;42.38
61900;BME280;47853;55.890;37.664;2022-09-09T10:24:59;100380.94;;;13.89;41.69
61900;BME280;47853;55.890;37.664;2022-09-09T10:27:36;100374.63;;;14.40;41.30
61900;BME280;47853;55.890;37.664;2022-09-09T10:30:09;100377.56;;;13.71;42.83
61900;BME280;47853;55.890;37.664;2022-09-09T10:35:34;100351.25;;;18.74;34.10
61900;BME280;47853;55.890;37.664;2022-09-09T10:38:14;100355.03;;;20.31;30.10
61900;BME280;47853;55.890;37.664;2022-09-09T10:40:49;100366.25;;;20.01;29.24
61900;BME280;47853;55.890;37.664;2022-09-09T10:57:22;100363.38;;;15.18;37.15
61900;BME280;47853;55.890;37.664;2022-09-09T10:59:53;100374.38;;;14.83;38.68
61900;BME280;47853;55.890;37.664;2022-09-09T11:02:30;100377.44;;;14.72;38.86
61900;BME280;47853;55.890;37.664;2022-09-09T11:07:30;100373.41;;;18.76;31.85
61900;BME280;47853;55.890;37.664;2022-09-09T11:10:04;100368.34;;;20.19;29.45
61900;BME280;47853;55.890;37.664;2022-09-09T11:12:48;100367.84;;;20.90;28.08
61900;BME280;47853;55.890;37.664;2022-09-09T11:15:38;100358.91;;;21.41;26.54
61900;BME280;47853;55.890;37.664;2022-09-09T11:18:04;100356.84;;;19.08;29.64
61900;BME280;47853;55.890;37.664;2022-09-09T11:20:31;100373.78;;;18.66;30.68
61900;BME280;47853;55.890;37.664;2022-09-09T11:23:04;100356.69;;;17.59;33.13
61900;BME280;47853;55.890;37.664;2022-09-09T11:25:38;100360.00;;;16.49;34.98
61900;BME280;47853;55.890;37.664;2022-09-09T11:36:43;100374.59;;;18.10;32.84
61900;BME280;47853;55.890;37.664;2022-09-09T11:39:36;100367.28;;;20.40;29.16
61900;BME280;47853;55.890;37.664;2022-09-09T11:44:37;100374.44;;;17.96;29.96
61900;BME280;47853;55.890;37.664;2022-09-09T11:47:03;100371.03;;;17.14;32.09
61900;BME280;47853;55.890;37.664;2022-09-09T11:49:39;100366.97;;;16.88;31.56
61900;BME280;47853;55.890;37.664;2022-09-09T11:52:36;100375.66;;;17.20;31.43
61900;BME280;47853;55.890;37.664;2022-09-09T11:55:30;100371.88;;;17.15;32.21
61900;BME280;47853;55.890;37.664;2022-09-09T11:58:03;100349.75;;;16.82;34.32
61900;BME280;47853;55.890;37.664;2022-09-09T12:00:48;100367.25;;;18.25;32.38
61900;BME280;47853;55.890;37.664;2022-09-09T12:06:11;100364.41;;;20.35;29.02
61900;BME280;47853;55.890;37.664;2022-09-09T12:08:41;100370.47;;;19.55;29.63
61900;BME280;47853;55.890;37.664;2022-09-09T12:11:08;100374.97;;;19.41;30.45
61900;BME280;47853;55.890;37.664;2022-09-09T12:13:33;100373.06;;;20.04;29.31
61900;BME280;47853;55.890;37.664;2022-09-09T12:15:59;100365.56;;;19.79;28.65
61900;BME280;47853;55.890;37.664;2022-09-09T12:18:32;100370.81;;;18.04;30.82
61900;BME280;47853;55.890;37.664;2022-09-09T12:21:10;100370.50;;;17.56;31.25
61900;BME280;47853;55.890;37.664;2022-09-09T12:37:06;100360.00;;;15.24;37.64
61900;BME280;47853;55.890;37.664;2022-09-09T12:39:39;100369.50;;;14.95;38.49
61900;BME280;47853;55.890;37.664;2022-09-09T12:42:17;100362.44;;;15.42;37.84
61900;BME280;47853;55.890;37.664;2022-09-09T12:45:00;100363.84;;;17.00;35.45
61900;BME280;47853;55.890;37.664;2022-09-09T12:47:54;100365.47;;;17.89;33.57
61900;BME280;47853;55.890;37.664;2022-09-09T12:50:22;100360.63;;;18.50;32.49
61900;BME280;47853;55.890;37.664;2022-09-09T12:52:54;100345.84;;;18.10;32.92
61900;BME280;47853;55.890;37.664;2022-09-09T12:55:28;100340.59;;;17.80;32.55
61900;BME280;47853;55.890;37.664;2022-09-09T12:57:54;100353.47;;;19.48;30.36
61900;BME280;47853;55.890;37.664;2022-09-09T13:00:22;100344.91;;;19.31;29.51
61900;BME280;47853;55.890;37.664;2022-09-09T13:02:51;100342.06;;;19.46;29.90
61900;BME280;47853;55.890;37.664;2022-09-09T13:08:01;100345.81;;;18.32;31.15
61900;BME280;47853;55.890;37.664;2022-09-09T13:10:29;100345.75;;;17.60;32.89
61900;BME280;47853;55.890;37.664;2022-09-09T13:12:56;100355.91;;;17.43;33.42
61900;BME280;47853;55.890;37.664;2022-09-09T13:15:24;100355.03;;;17.58;33.75
61900;BME280;47853;55.890;37.664;2022-09-09T13:17:55;100355.88;;;19.22;31.09
61900;BME280;47853;55.890;37.664;2022-09-09T13:20:24;100356.19;;;18.99;30.97
61900;BME280;47853;55.890;37.664;2022-09-09T13:22:51;100363.78;;;18.95;31.19
61900;BME280;47853;55.890;37.664;2022-09-09T13:25:20;100358.06;;;19.05;31.05
61900;BME280;47853;55.890;37.664;2022-09-09T13:28:04;100365.53;;;17.37;32.44
61900;BME280;47853;55.890;37.664;2022-09-09T13:30:36;100367.78;;;18.14;31.97
61900;BME280;47853;55.890;37.664;2022-09-09T13:38:14;100369.69;;;18.77;31.96
61900;BME280;47853;55.890;37.664;2022-09-09T13:40:40;100363.28;;;18.43;31.99
61900;BME280;47853;55.890;37.664;2022-09-09T13:43:21;100347.56;;;17.75;33.08
61900;BME280;47853;55.890;37.664;2022-09-09T13:46:05;100348.22;;;17.03;34.24
61900;BME280;47853;55.890;37.664;2022-09-09T13:48:31;100365.09;;;16.89;34.92
61900;BME280;47853;55.890;37.664;2022-09-09T13:51:02;100356.03;;;16.45;35.62
61900;BME280;47853;55.890;37.664;2022-09-09T13:53:28;100353.13;;;15.85;36.05
61900;BME280;47853;55.890;37.664;2022-09-09T13:55:54;100350.69;;;15.51;37.09
61900;BME280;47853;55.890;37.664;2022-09-09T13:58:19;100358.31;;;15.86;37.17
61900;BME280;47853;55.890;37.664;2022-09-09T14:00:45;100363.06;;;17.36;34.53
61900;BME280;47853;55.890;37.664;2022-09-09T14:03:11;100342.09;;;18.33;32.18
61900;BME280;47853;55.890;37.664;2022-09-09T14:05:37;100351.69;;;19.89;30.10
61900;BME280;47853;55.890;37.664;2022-09-09T14:08:04;100348.78;;;20.71;28.49
61900;BME280;47853;55.890;37.664;2022-09-09T14:10:31;100327.47;;;20.16;28.63
61900;BME280;47853;55.890;37.664;2022-09-09T14:12:56;100350.88;;;20.49;28.66
61900;BME280;47853;55.890;37.664;2022-09-09T14:15:21;100328.03;;;21.24;27.38
61900;BME280;47853;55.890;37.664;2022-09-09T14:17:47;100355.56;;;21.00;27.57
61900;BME280;47853;55.890;37.664;2022-09-09T14:20:12;100337.78;;;19.71;28.82
61900;BME280;47853;55.890;37.664;2022-09-09T14:22:38;100345.59;;;18.34;30.66
61900;BME280;47853;55.890;37.664;2022-09-09T14:25:03;100338.59;;;17.89;31.39
61900;BME280;47853;55.890;37.664;2022-09-09T14:27:29;100328.28;;;17.28;32.88
61900;BME280;47853;55.890;37.664;2022-09-09T14:29:54;100333.16;;;16.34;34.08
61900;BME280;47853;55.890;37.664;2022-09-09T14:32:22;100354.91;;;16.39;34.45
61900;BME280;47853;55.890;37.664;2022-09-09T14:34:48;100353.63;;;16.12;34.91
61900;BME280;47853;55.890;37.664;2022-09-09T14:37:13;100357.69;;;16.46;34.63
61900;BME280;47853;55.890;37.664;2022-09-09T14:39:38;100358.00;;;16.66;33.64
61900;BME280;47853;55.890;37.664;2022-09-09T14:42:04;100360.41;;;16.22;34.39
61900;BME280;47853;55.890;37.664;2022-09-09T14:44:29;100352.81;;;15.56;36.00